Time;durP1;ratioP1;P1;durP2;ratioP2;P2;SDS_P1;SDS_P2;PMS_P1;PMS_P2;Temp;Humidity;BMP_temperature;BMP_pressure;BME280_temperature;BME280_humidity;BME280_pressure;Samples;Min_cycle;Max_cycle;Signal;HPM_P1;HPM_P2
2024/01/31 17:24:31;;;;;;;6.80;3.00;;;;;;;;;;5080941;27;55247;-46
2024/01/31 17:29:05;;;;;;;5.18;3.15;;;;;;;20.45;40.40;101268.72;5046382;28;20127;-43
2024/01/31 17:32:35;;;;;;;5.88;3.63;;;;;;;20.78;39.35;101265.81;5044033;28;20485;-43
2024/01/31 17:35:00;;;;;;;7.15;3.45;;;;;;;20.62;43.66;101267.56;5016908;28;20045;-42
2024/01/31 17:37:25;;;;;;;7.97;3.53;;;;;;;20.50;41.35;101263.59;5031021;28;20286;-43
2024/01/31 17:39:50;;;;;;;5.55;3.30;;;;;;;20.46;40.00;101264.97;5026021;28;22145;-40
2024/01/31 17:42:15;;;;;;;5.90;3.27;;;;;;;20.46;39.55;101262.28;5021732;28;20152;-43
2024/01/31 17:44:40;;;;;;;6.47;3.30;;;;;;;20.49;39.96;101257.31;5015216;28;51314;-42
2024/01/31 17:47:07;;;;;;;5.40;3.63;;;;;;;20.46;39.67;101254.13;5060651;23;20106;-68
2024/01/31 17:49:32;;;;;;;4.93;2.97;;;;;;;20.94;39.15;101249.34;5067759;28;20025;-58
2024/01/31 17:51:58;;;;;;;5.32;2.92;;;;;;;20.70;41.84;101259.34;5044954;28;20055;-58
2024/01/31 17:54:23;;;;;;;5.68;3.20;;;;;;;20.65;40.55;101258.19;5046446;28;20041;-57
2024/01/31 17:56:50;;;;;;;6.80;2.90;;;;;;;20.38;39.84;101253.16;5046319;28;20104;-56
2024/01/31 17:59:15;;;;;;;7.30;3.15;;;;;;;20.63;39.40;101244.81;5047124;28;20279;-59
2024/01/31 18:05:45;;;;;;;6.40;3.33;;;;;;;21.38;37.79;101235.97;5036217;27;20413;-44
2024/01/31 18:08:11;;;;;;;4.53;2.87;;;;;;;20.72;39.30;101241.00;5006130;28;20065;-44
2024/01/31 18:10:36;;;;;;;4.95;3.08;;;;;;;20.12;40.80;101249.94;4995706;28;20277;-40
2024/01/31 18:13:01;;;;;;;7.88;3.20;;;;;;;19.97;40.22;101247.97;5006910;28;20129;-40
2024/01/31 18:15:26;;;;;;;4.93;3.10;;;;;;;19.98;41.00;101238.81;5006323;28;20497;-41
2024/01/31 18:17:52;;;;;;;4.93;3.22;;;;;;;20.17;40.24;101237.50;5005824;28;20116;-39
2024/01/31 18:20:18;;;;;;;5.13;2.80;;;;;;;20.03;39.61;101236.38;5005696;28;20057;-38
2024/01/31 18:22:44;;;;;;;4.97;2.90;;;;;;;19.79;39.63;101238.19;5000414;28;20763;-39
2024/01/31 18:25:09;;;;;;;4.93;3.20;;;;;;;19.77;39.75;101228.53;5002610;28;20026;-39
2024/01/31 18:27:34;;;;;;;4.70;2.90;;;;;;;19.65;40.07;101228.06;4990422;28;20397;-39
2024/01/31 18:29:59;;;;;;;5.60;3.07;;;;;;;19.73;42.93;101227.19;5007424;28;20620;-38
2024/01/31 18:32:25;;;;;;;7.50;3.23;;;;;;;19.64;40.27;101227.25;5016525;28;20069;-38
2024/01/31 18:34:50;;;;;;;5.28;3.03;;;;;;;19.66;40.40;101221.63;5020156;28;20343;-38
2024/01/31 18:37:17;;;;;;;7.65;2.85;;;;;;;19.76;40.28;101233.09;5018848;28;20464;-38
2024/01/31 18:39:43;;;;;;;6.00;3.50;;;;;;;19.71;40.21;101224.66;5005541;28;20061;-38
2024/01/31 18:42:08;;;;;;;4.82;3.10;;;;;;;19.68;40.29;101230.44;5001791;28;20026;-38
2024/01/31 18:44:33;;;;;;;5.60;3.60;;;;;;;19.66;40.15;101227.06;5003302;28;20056;-38
2024/01/31 18:46:58;;;;;;;6.55;2.95;;;;;;;19.68;40.34;101222.31;5001661;28;20326;-38
2024/01/31 18:49:23;;;;;;;6.82;3.40;;;;;;;19.71;40.29;101221.09;5006352;28;20034;-38
2024/01/31 18:51:49;;;;;;;5.43;3.07;;;;;;;19.72;40.37;101201.94;5006287;28;20138;-38
2024/01/31 18:54:14;;;;;;;4.82;3.10;;;;;;;19.67;40.30;101198.91;5006244;28;20034;-39
2024/01/31 18:56:40;;;;;;;5.32;3.55;;;;;;;19.70;40.32;101186.84;5014245;28;20030;-38
2024/01/31 18:59:06;;;;;;;4.82;2.90;;;;;;;19.79;40.69;101199.34;5013718;28;20046;-38
2024/01/31 19:01:31;;;;;;;4.90;3.28;;;;;;;19.78;40.51;101195.81;5006709;28;20034;-38
2024/01/31 19:03:56;;;;;;;4.97;3.30;;;;;;;19.78;41.42;101193.09;5020138;28;20077;-38
2024/01/31 19:06:22;;;;;;;6.63;3.17;;;;;;;20.02;40.20;101190.44;5018416;28;20021;-38
2024/01/31 19:08:47;;;;;;;5.65;3.33;;;;;;;20.04;40.09;101186.53;5021237;28;20069;-38
2024/01/31 19:11:13;;;;;;;6.70;3.30;;;;;;;19.98;40.15;101184.53;5014799;28;20092;-38
2024/01/31 19:13:38;;;;;;;5.03;3.20;;;;;;;19.93;40.23;101170.69;5018871;28;20276;-38
2024/01/31 19:16:04;;;;;;;6.82;3.30;;;;;;;19.96;40.13;101178.44;5012347;28;20269;-38
2024/01/31 19:18:29;;;;;;;6.68;3.33;;;;;;;19.94;40.20;101178.63;5006923;28;20029;-38
2024/01/31 19:20:54;;;;;;;7.07;3.50;;;;;;;19.89;40.32;101183.72;4983412;28;20073;-38
2024/01/31 19:23:19;;;;;;;5.00;3.13;;;;;;;19.88;40.18;101178.50;4995640;28;20367;-38
2024/01/31 19:25:44;;;;;;;5.47;3.38;;;;;;;19.88;40.21;101181.19;4996760;28;20041;-38
2024/01/31 19:28:10;;;;;;;4.97;3.22;;;;;;;19.84;40.50;101167.13;5007342;28;20477;-38
2024/01/31 19:30:35;;;;;;;8.60;3.33;;;;;;;19.83;40.35;101176.28;5011950;28;20108;-38
2024/01/31 19:33:00;;;;;;;4.75;3.22;;;;;;;19.79;40.36;101180.34;5007446;28;20038;-38
2024/01/31 19:35:25;;;;;;;4.70;2.90;;;;;;;19.77;40.34;101169.69;4991319;28;20029;-38
2024/01/31 19:37:51;;;;;;;6.38;3.20;;;;;;;19.73;40.29;101179.22;4992665;28;20053;-38
2024/01/31 19:40:16;;;;;;;5.33;3.50;;;;;;;19.70;40.39;101176.00;4992982;28;20037;-39
2024/01/31 19:42:41;;;;;;;5.80;2.95;;;;;;;19.69;40.49;101179.75;4993896;28;20280;-38
2024/01/31 19:45:07;;;;;;;6.10;2.87;;;;;;;19.67;40.65;101174.50;4992448;28;20037;-38
2024/01/31 19:47:32;;;;;;;6.10;3.58;;;;;;;19.66;40.63;101180.94;4991813;28;20108;-38
2024/01/31 19:49:57;;;;;;;4.97;3.17;;;;;;;19.64;40.50;101185.72;4994027;28;20073;-38
2024/01/31 19:52:23;;;;;;;5.15;3.33;;;;;;;19.63;40.94;101182.16;4993121;28;20328;-39
2024/01/31 19:54:48;;;;;;;5.25;3.17;;;;;;;19.60;40.79;101182.50;4987761;28;20536;-38
2024/01/31 19:57:13;;;;;;;4.90;3.10;;;;;;;19.67;40.64;101187.22;4993958;28;20294;-39
2024/01/31 19:59:40;;;;;;;7.22;3.80;;;;;;;19.66;40.92;101180.09;4990248;28;20025;-39
2024/01/31 20:02:05;;;;;;;6.95;3.38;;;;;;;19.68;40.80;101175.34;5014032;28;20030;-39
2024/01/31 20:04:30;;;;;;;6.03;3.10;;;;;;;19.64;40.65;101183.84;5007496;28;20038;-38
2024/01/31 20:06:56;;;;;;;5.20;3.17;;;;;;;19.63;40.76;101175.91;4988178;28;20042;-38
2024/01/31 20:09:21;;;;;;;5.60;3.63;;;;;;;19.62;41.09;101180.44;4991232;28;20110;-38
2024/01/31 20:11:51;;;;;;;4.93;3.40;;;;;;;19.62;40.74;101180.44;4991598;28;20046;-38
2024/01/31 20:14:16;;;;;;;5.63;3.33;;;;;;;19.63;40.91;101176.72;4992068;28;20760;-38
2024/01/31 20:16:41;;;;;;;5.13;3.33;;;;;;;19.63;40.95;101179.44;4989001;28;20026;-38
2024/01/31 20:19:06;;;;;;;5.47;3.60;;;;;;;19.62;40.90;101174.19;4993040;28;20026;-38
2024/01/31 20:21:32;;;;;;;7.20;3.40;;;;;;;19.66;40.69;101178.22;4992984;28;20030;-38
2024/01/31 20:23:57;;;;;;;8.00;3.20;;;;;;;19.63;40.89;101165.88;4992501;28;20041;-38
2024/01/31 20:26:22;;;;;;;7.30;3.33;;;;;;;19.70;40.98;101165.16;4992539;28;20273;-38
2024/01/31 20:28:47;;;;;;;5.50;3.42;;;;;;;19.67;40.56;101160.94;4991955;28;20038;-38
2024/01/31 20:31:12;;;;;;;5.17;3.40;;;;;;;19.63;40.65;101159.63;4992676;28;20058;-38
2024/01/31 20:33:38;;;;;;;5.73;3.80;;;;;;;19.64;40.68;101174.88;5003119;28;20033;-38
2024/01/31 20:36:03;;;;;;;7.63;3.77;;;;;;;19.61;40.76;101173.34;4997693;28;20279;-44
2024/01/31 20:38:28;;;;;;;5.07;3.20;;;;;;;19.62;40.85;101174.19;4991750;28;20336;-40
2024/01/31 20:40:53;;;;;;;7.00;3.60;;;;;;;19.69;41.16;101158.91;4990687;28;20053;-40
2024/01/31 20:43:18;;;;;;;6.27;3.43;;;;;;;19.68;40.97;101157.19;4990544;28;20026;-38
2024/01/31 20:45:44;;;;;;;6.23;3.40;;;;;;;19.70;41.04;101147.03;4991282;28;20034;-38
2024/01/31 20:48:09;;;;;;;8.80;3.90;;;;;;;19.67;40.72;101144.66;4991384;28;20265;-38
2024/01/31 20:50:34;;;;;;;7.60;3.87;;;;;;;19.69;40.78;101144.50;4991220;28;20544;-38
2024/01/31 20:53:00;;;;;;;5.65;3.65;;;;;;;19.67;40.86;101139.25;4992315;28;20035;-38
2024/01/31 20:55:25;;;;;;;6.68;4.03;;;;;;;19.66;40.83;101129.41;4995356;28;20034;-38
2024/01/31 20:57:50;;;;;;;9.02;3.70;;;;;;;19.68;40.84;101115.69;5010983;28;20028;-38
2024/01/31 21:00:16;;;;;;;6.70;3.70;;;;;;;19.66;40.69;101115.84;5010855;28;20065;-38
2024/01/31 21:02:41;;;;;;;4.95;2.90;;;;;;;19.63;40.82;101111.63;5002685;28;20303;-38
2024/01/31 21:05:06;;;;;;;5.00;3.40;;;;;;;19.64;40.62;101099.75;5011474;28;20048;-38
2024/01/31 21:07:38;;;;;;;5.28;3.70;;;;;;;19.62;40.93;101099.09;5002263;28;20271;-38
2024/01/31 21:10:03;;;;;;;5.10;3.35;;;;;;;19.62;40.71;101088.25;5010907;28;20030;-38
2024/01/31 21:12:29;;;;;;;5.38;3.53;;;;;;;19.63;40.72;101080.97;5000138;28;20033;-38
2024/01/31 21:14:54;;;;;;;5.43;3.67;;;;;;;19.64;40.62;101064.50;5010640;28;20025;-38
2024/01/31 21:17:19;;;;;;;4.93;3.58;;;;;;;19.63;40.84;101059.28;5010686;28;20492;-38
2024/01/31 21:19:44;;;;;;;5.47;3.60;;;;;;;19.64;40.79;101053.66;4989335;28;20037;-38
2024/01/31 21:22:09;;;;;;;7.23;3.60;;;;;;;19.66;40.75;101044.50;4990148;28;20266;-38
2024/01/31 21:24:35;;;;;;;4.68;3.17;;;;;;;19.65;40.78;101049.06;4989303;28;20609;-38
2024/01/31 21:27:00;;;;;;;5.23;3.47;;;;;;;19.65;40.71;101051.78;4994412;28;20063;-38
2024/01/31 21:29:25;;;;;;;5.90;3.67;;;;;;;19.59;40.75;101053.38;5009087;28;20029;-38
2024/01/31 21:31:50;;;;;;;8.60;3.93;;;;;;;19.59;40.80;101052.50;5003701;28;20030;-38
2024/01/31 21:34:15;;;;;;;5.55;3.50;;;;;;;19.60;40.75;101051.47;5002615;28;20275;-38
2024/01/31 21:36:41;;;;;;;5.90;3.80;;;;;;;19.62;40.67;101054.88;5001027;28;20033;-38
2024/01/31 21:39:06;;;;;;;4.97;3.27;;;;;;;19.64;40.71;101058.25;5009907;28;20269;-38
2024/01/31 21:41:31;;;;;;;5.30;3.30;;;;;;;19.63;40.50;101051.97;5002514;28;20068;-38
2024/01/31 21:43:56;;;;;;;5.53;3.42;;;;;;;19.65;40.63;101057.19;5006773;28;20313;-38
2024/01/31 21:46:22;;;;;;;5.10;3.17;;;;;;;19.64;40.75;101055.53;4991529;28;20037;-38
2024/01/31 21:48:47;;;;;;;5.35;3.15;;;;;;;19.59;40.67;101053.38;4997410;28;20488;-38
2024/01/31 21:51:12;;;;;;;6.03;3.80;;;;;;;19.57;40.63;101054.53;4997934;28;20029;-38
2024/01/31 21:53:37;;;;;;;5.50;3.30;;;;;;;19.59;40.62;101049.78;4997580;28;20334;-38
2024/01/31 21:56:02;;;;;;;5.43;3.80;;;;;;;19.58;40.71;101054.38;5003079;28;20344;-38
2024/01/31 21:58:28;;;;;;;5.50;3.63;;;;;;;19.62;40.76;101049.44;5008973;28;20378;-38
2024/01/31 22:00:53;;;;;;;5.45;3.63;;;;;;;19.64;40.77;101055.53;5009143;28;20065;-38
2024/01/31 22:03:20;;;;;;;5.43;3.50;;;;;;;19.65;40.75;101054.47;5008851;28;20416;-38
2024/01/31 22:05:45;;;;;;;5.93;3.17;;;;;;;19.59;40.63;101045.22;5005654;28;20037;-38
2024/01/31 22:08:10;;;;;;;5.45;3.42;;;;;;;19.64;40.76;101050.13;5004075;28;20667;-38
2024/01/31 22:10:36;;;;;;;5.30;3.30;;;;;;;19.61;40.78;101045.88;4997732;28;20041;-38
2024/01/31 22:13:01;;;;;;;4.97;3.15;;;;;;;19.61;40.71;101053.19;5002698;28;20296;-38
2024/01/31 22:15:26;;;;;;;5.47;3.63;;;;;;;19.60;40.92;101041.47;5009167;28;20056;-39
2024/01/31 22:17:51;;;;;;;7.13;3.73;;;;;;;19.61;40.62;101047.75;5008191;28;20033;-38
2024/01/31 22:20:19;;;;;;;4.95;3.30;;;;;;;19.61;40.81;101050.47;4982437;28;20263;-40
2024/01/31 22:22:44;;;;;;;5.70;3.70;;;;;;;19.64;40.81;101037.38;4988159;28;20038;-40
2024/01/31 22:25:10;;;;;;;5.47;3.60;;;;;;;19.58;40.96;101038.13;5003033;28;20048;-40
2024/01/31 22:27:35;;;;;;;6.85;3.45;;;;;;;19.58;40.75;101038.13;5005152;28;20038;-39
2024/01/31 22:30:00;;;;;;;5.32;3.47;;;;;;;19.61;40.66;101036.91;5001920;28;20025;-39
2024/01/31 22:32:25;;;;;;;5.00;2.97;;;;;;;19.59;40.61;101022.69;5001385;28;20037;-39
2024/01/31 22:34:50;;;;;;;4.60;3.13;;;;;;;19.60;40.69;101024.38;5008480;28;20300;-40
2024/01/31 22:37:16;;;;;;;5.20;3.20;;;;;;;19.62;41.00;101030.47;5000141;28;20390;-40
2024/01/31 22:39:41;;;;;;;5.07;3.08;;;;;;;19.59;40.84;101028.97;5008729;28;20044;-40
2024/01/31 22:42:06;;;;;;;5.10;3.33;;;;;;;19.60;40.70;101030.63;5000482;28;20030;-39
2024/01/31 22:44:32;;;;;;;5.82;3.38;;;;;;;19.57;40.63;101027.44;5001272;28;20293;-40
2024/01/31 22:46:57;;;;;;;4.88;3.50;;;;;;;19.59;40.75;101033.53;5002059;28;20117;-40
2024/01/31 22:49:22;;;;;;;5.38;3.45;;;;;;;19.57;40.85;101025.56;4991207;28;20037;-40
2024/01/31 22:51:47;;;;;;;4.82;3.35;;;;;;;19.59;40.68;101023.53;5003038;28;20054;-39
2024/01/31 22:54:13;;;;;;;4.60;3.17;;;;;;;19.58;40.75;101020.97;5015674;28;20022;-39
2024/01/31 22:56:38;;;;;;;4.70;3.17;;;;;;;19.64;40.81;101020.28;5012377;28;20396;-39
2024/01/31 22:59:03;;;;;;;4.70;3.37;;;;;;;19.60;40.78;101013.50;5012342;28;20087;-39
2024/01/31 23:01:28;;;;;;;5.17;3.50;;;;;;;19.61;40.62;101007.06;4996034;28;20344;-40
2024/01/31 23:03:53;;;;;;;5.30;3.30;;;;;;;19.59;40.66;101009.97;5011416;28;20360;-39
2024/01/31 23:06:19;;;;;;;5.13;3.33;;;;;;;19.60;40.88;101002.66;5010297;28;20033;-40
2024/01/31 23:08:44;;;;;;;4.65;3.10;;;;;;;19.64;40.73;101010.25;5011818;28;20083;-40
2024/01/31 23:11:10;;;;;;;5.60;3.70;;;;;;;19.62;40.50;101011.47;5011489;28;20038;-39
2024/01/31 23:13:36;;;;;;;5.30;3.33;;;;;;;19.57;40.62;101016.56;5010849;28;20038;-40
2024/01/31 23:16:01;;;;;;;5.53;3.30;;;;;;;19.59;40.88;101025.38;5004533;28;20034;-40
2024/01/31 23:18:27;;;;;;;5.25;3.50;;;;;;;19.58;40.75;101021.84;5006463;28;20034;-39
2024/01/31 23:20:52;;;;;;;6.13;3.75;;;;;;;19.60;40.90;101024.38;4984183;28;20032;-40
2024/01/31 23:23:18;;;;;;;5.15;3.28;;;;;;;19.60;40.98;101025.19;4984327;28;20432;-39
2024/01/31 23:25:43;;;;;;;5.40;3.35;;;;;;;19.64;40.76;101031.13;4988613;28;20085;-39
2024/01/31 23:28:09;;;;;;;5.43;3.53;;;;;;;19.61;40.69;101023.34;4997287;28;20049;-39
2024/01/31 23:30:34;;;;;;;4.85;3.17;;;;;;;19.64;40.90;101026.53;5002952;28;20022;-39
2024/01/31 23:32:59;;;;;;;6.00;3.75;;;;;;;19.65;40.55;101016.50;5004161;28;20524;-39
2024/01/31 23:35:24;;;;;;;5.03;3.40;;;;;;;19.63;40.71;101026.72;5011761;28;20029;-39
2024/01/31 23:37:49;;;;;;;4.70;3.27;;;;;;;19.60;40.70;101032.50;5007876;28;20264;-39
2024/01/31 23:40:15;;;;;;;4.97;2.90;;;;;;;19.63;41.30;101041.13;4992151;28;20265;-39
2024/01/31 23:42:40;;;;;;;5.55;3.05;;;;;;;19.62;40.74;101041.31;5003262;28;20280;-39
2024/01/31 23:45:05;;;;;;;4.85;3.38;;;;;;;19.63;40.87;101037.56;4994166;28;20022;-39
2024/01/31 23:47:30;;;;;;;5.45;3.10;;;;;;;19.59;40.94;101042.53;4998233;28;20032;-39
2024/01/31 23:49:57;;;;;;;5.57;3.37;;;;;;;19.59;40.85;101047.09;5002611;28;20088;-39
2024/01/31 23:52:22;;;;;;;5.05;3.30;;;;;;;19.63;40.92;101046.53;5006913;28;20454;-39
2024/01/31 23:54:48;;;;;;;5.40;3.60;;;;;;;19.58;40.60;101039.97;5003045;28;20065;-39
2024/01/31 23:57:14;;;;;;;4.75;3.28;;;;;;;19.63;40.72;101045.72;5005739;28;20076;-39
2024/01/31 23:59:39;;;;;;;5.40;3.28;;;;;;;19.60;40.82;101046.88;5008589;28;20117;-39
